Montmorenci, Indiana
Current Conditions -  °F | °C
As of 10:54 AM on Thursday 29 Jan 2015 (Local Time) from KLAF Reporting Station
Overcast Overcast  
Wind Chill: 27°   Ceiling: 2300
Heat Index: 36°   Visibility: 10mi
Dew Point: 32°   Wind: 15mph
Humidity: 86%   Direction: 290°WNW
Pressure: 29.83"   Gusts: 24mph
Location:  40.47°N, 87.03°W
Report Text: KLAF 291554Z 29013G21KT 10SM FEW015 OVC023 02/00 A2983 RMK AO2 PRESRR SLP104 T00220000
Loading
Personal Weather Stations






























Interactive Weather Map New forecast layout! Learn more

10-Day Weather Forecast

Advertisements
Track Severe Weather on mobile